• Join FlightAware (Why Join?)
  • Login
  • US Flag 
12:11PM EDT


 

Airport Tracker/Info


-or-


 

Live Flight TrackerFlight Track Log ✈ DAL6115 ✈ 01-Sep-2013 ✈ KJFK - KRIC

Flight Track Log - Related Links

Times and Time Zones

All times are in EDT time to prevent confusion due to time zone crossing. See the DAL6115 flight status page for this flight to view local times or setup timezone preferences in your user account.

Time Position Orientation Groundspeed Altitude Reporting Facility
EDT Latitude Longitude Course Direction KTS MPH feet Rate Location/Type
07:36PM 40.5369 -73.8186 220° Southwest 198 228 3,900  Level New York Center
07:37PM 40.4856 -73.7889 156° South 207 238 5,200 1,800 Climbing New York Center
07:38PM 40.5067 -73.6972 73° East 219 252 7,500 2,160 Climbing New York Center
07:39PM 40.2326 -73.3827 146° Southeast  Level FlightAware Approximate
07:39PM 40.4964 -73.6094 99° East 238 274 9,600  Level New York Center
07:40PM 40.1480 -73.3074 146° Southeast  Level FlightAware Approximate
07:40PM 40.4267 -73.5575 150° Southeast 247 284 11,100  Level New York Center
07:41PM 40.0656 -73.2713 223° Southwest  Level FlightAware Approximate
07:41PM 40.3572 -73.4975 147° Southeast 291 335 12,200  Level New York Center
07:42PM 39.9899 -73.3613 220° Southwest  Level FlightAware Approximate
07:42PM 40.2775 -73.4317 148° Southeast 327 376 13,700  Level New York Center
07:43PM 40.2000 -73.3633 146° Southeast 336 387 15,000 1,440 Climbing New York Center
07:44PM 40.1022 -73.3489 174° South 330 380 16,600 1,440 Climbing New York Center
07:45PM 40.0067 -73.3400 176° South 348 400 17,900 1,380 Climbing New York Center
07:46PM 39.9144 -73.3636 191° South 348 400 19,400 1,320 Climbing New York Center
07:48PM 39.8281 -73.4706 224° Southwest 332 382 21,100 1,080 Climbing Washington Center
07:49PM 39.7589 -73.5617 225° Southwest 344 396 22,000 420 Climbing Washington Center
07:50PM 39.6853 -73.6581 225° Southwest 364 419 22,000  Level Washington Center
07:51PM 39.6097 -73.7572 225° Southwest 383 441 22,000  Level Washington Center
07:52PM 39.5342 -73.8586 226° Southwest 388 447 22,000  Level Washington Center
07:53PM 39.4586 -73.9572 225° Southwest 388 447 22,000  Level Washington Center
07:54PM 39.3786 -74.0531 223° Southwest 388 447 22,000  Level Washington Center
07:55PM 39.2922 -74.1461 220° Southwest 401 461 22,000  Level Washington Center
07:56PM 39.1994 -74.2497 221° Southwest 408 470 22,000  Level Washington Center
07:57PM 39.1131 -74.3450 221° Southwest 413 475 22,000  Level Washington Center
07:58PM 39.0264 -74.4372 220° Southwest 413 475 22,000  Level Washington Center
07:59PM 38.9439 -74.5294 221° Southwest 407 468 22,000  Level Washington Center
08:00PM 38.8778 -74.5997 220° Southwest 402 463 22,000  Level Washington Center
08:01PM 38.7764 -74.7050 219° Southwest 396 456 22,000  Level Washington Center
08:02PM 38.6936 -74.7936 220° Southwest 396 456 22,000  Level Washington Center
08:03PM 38.6108 -74.8822 220° Southwest 396 456 22,000  Level Washington Center
08:04PM 38.5489 -74.9944 235° Southwest 382 440 22,000  Level Washington Center
08:05PM 38.4975 -75.1117 241° Southwest 388 447 22,000  Level Washington Center
08:06PM 38.4497 -75.2233 241° Southwest 382 440 22,000  Level Washington Center
08:07PM 38.4064 -75.3242 241° Southwest 358 412 22,000  Level Washington Center
08:08PM 38.3606 -75.4328 242° Southwest 345 397 22,000  Level Washington Center
08:09PM 38.3150 -75.5389 241° Southwest 345 397 22,000  Level Washington Center
08:10PM 38.2711 -75.6289 238° Southwest 350 403 22,000 -120 Level Washington Center
08:11PM 38.2253 -75.7292 240° Southwest 350 403 21,800 -900 Descending Washington Center
08:12PM 38.1814 -75.8322 242° Southwest 343 395 20,300 -1,560 Descending Washington Center
08:13PM 38.1394 -75.9269 241° Southwest 331 381 18,700 -1,620 Descending Washington Center
08:14PM 38.0953 -76.0219 239° Southwest 320 368 17,100 -1,380 Descending Washington Center
08:15PM 38.0553 -76.1164 242° Southwest 314 361 16,000 -600 Descending Washington Center
08:16PM 38.0131 -76.2058 239° Southwest 314 361 16,000  Level Washington Center
08:17PM 37.9856 -76.3083 251° West 309 356 16,000 -480 Level Washington Center
08:18PM 37.9700 -76.4189 260° West 309 356 15,100 -1,020 Descending Washington Center
08:19PM 37.9547 -76.5344 261° West 326 375 14,000 -1,320 Descending Washington Center
08:20PM 37.9392 -76.6369 259° West 326 375 12,500 -1,620 Descending Washington Center
08:21PM 37.9050 -76.7367 247° West 297 342 10,800 -1,620 Descending Washington Center
08:22PM 37.8792 -76.8283 250° West 285 328 9,300 -1,620 Descending Washington Center
08:23PM 37.8531 -76.9172 250° West 280 322 7,600 -1,680 Descending Washington Center
08:24PM 37.8269 -77.0036 249° West 280 322 6,000 -1,620 Descending Washington Center
08:25PM 37.7947 -77.0844 243° Southwest 268 308 4,400 -1,560 Descending Washington Center
08:26PM 37.7503 -77.1519 230° Southwest 255 293 3,000 -1,020 Descending Washington Center
08:27PM 37.7117 -77.2167 233° Southwest 249 287 2,500 -360 Descending Washington Center
08:29PM 37.6167 -77.3000 215° Southwest 183 211 2,000 -420 Descending Potomac TRACON
08:30PM 37.5667 -77.3000 180° South 158 182 1,400 -720 Descending Potomac TRACON
08:31PM 37.5333 -77.3167 202° Southwest 134 154 700 -720 Descending Potomac TRACON